sensor_id;sensor_type;location;lat;lon;timestamp;P1;durP1;ratioP1;P2;durP2;ratioP2
18286;SDS011;9269;50.838;12.094;2023-04-24T00:01:50;2.70;;;2.03;;
18286;SDS011;9269;50.838;12.094;2023-04-24T00:04:19;1.80;;;1.70;;
18286;SDS011;9269;50.838;12.094;2023-04-24T00:06:58;2.47;;;2.03;;
18286;SDS011;9269;50.838;12.094;2023-04-24T00:09:26;2.50;;;1.80;;
18286;SDS011;9269;50.838;12.094;2023-04-24T00:11:55;1.87;;;1.77;;
18286;SDS011;9269;50.838;12.094;2023-04-24T00:14:24;1.60;;;1.50;;
18286;SDS011;9269;50.838;12.094;2023-04-24T00:17:04;2.80;;;1.93;;
18286;SDS011;9269;50.838;12.094;2023-04-24T00:19:33;1.97;;;1.80;;
18286;SDS011;9269;50.838;12.094;2023-04-24T00:22:04;1.60;;;1.47;;
18286;SDS011;9269;50.838;12.094;2023-04-24T00:24:39;2.67;;;1.90;;
18286;SDS011;9269;50.838;12.094;2023-04-24T00:27:09;2.70;;;1.70;;
18286;SDS011;9269;50.838;12.094;2023-04-24T00:32:40;1.70;;;1.60;;
18286;SDS011;9269;50.838;12.094;2023-04-24T00:38:03;2.30;;;1.77;;
18286;SDS011;9269;50.838;12.094;2023-04-24T00:43:30;2.83;;;1.70;;
18286;SDS011;9269;50.838;12.094;2023-04-24T00:45:59;2.10;;;1.90;;
18286;SDS011;9269;50.838;12.094;2023-04-24T00:48:43;1.70;;;1.60;;
18286;SDS011;9269;50.838;12.094;2023-04-24T00:51:14;2.03;;;1.70;;
18286;SDS011;9269;50.838;12.094;2023-04-24T00:53:49;2.27;;;1.43;;
18286;SDS011;9269;50.838;12.094;2023-04-24T00:56:19;2.13;;;1.60;;
18286;SDS011;9269;50.838;12.094;2023-04-24T00:58:48;2.30;;;1.63;;
18286;SDS011;9269;50.838;12.094;2023-04-24T01:01:17;2.10;;;1.80;;
18286;SDS011;9269;50.838;12.094;2023-04-24T01:04:01;2.37;;;1.73;;
18286;SDS011;9269;50.838;12.094;2023-04-24T01:06:30;2.50;;;1.70;;
18286;SDS011;9269;50.838;12.094;2023-04-24T01:08:59;1.90;;;1.70;;
18286;SDS011;9269;50.838;12.094;2023-04-24T01:11:38;2.83;;;1.67;;
18286;SDS011;9269;50.838;12.094;2023-04-24T01:14:08;1.87;;;1.43;;
18286;SDS011;9269;50.838;12.094;2023-04-24T01:22:36;1.87;;;1.60;;
18286;SDS011;9269;50.838;12.094;2023-04-24T01:25:04;1.80;;;1.70;;
18286;SDS011;9269;50.838;12.094;2023-04-24T01:27:33;1.40;;;1.30;;
18286;SDS011;9269;50.838;12.094;2023-04-24T01:30:02;4.87;;;1.70;;
18286;SDS011;9269;50.838;12.094;2023-04-24T01:32:46;1.50;;;1.40;;
18286;SDS011;9269;50.838;12.094;2023-04-24T01:35:15;2.10;;;1.90;;
18286;SDS011;9269;50.838;12.094;2023-04-24T01:37:45;2.10;;;1.60;;
18286;SDS011;9269;50.838;12.094;2023-04-24T01:40:14;1.87;;;1.57;;
18286;SDS011;9269;50.838;12.094;2023-04-24T01:42:45;1.80;;;1.63;;
18286;SDS011;9269;50.838;12.094;2023-04-24T01:48:09;1.57;;;1.47;;
18286;SDS011;9269;50.838;12.094;2023-04-24T01:53:34;1.87;;;1.57;;
18286;SDS011;9269;50.838;12.094;2023-04-24T01:56:02;1.87;;;1.50;;
18286;SDS011;9269;50.838;12.094;2023-04-24T01:58:31;1.77;;;1.67;;
18286;SDS011;9269;50.838;12.094;2023-04-24T02:01:00;1.53;;;1.43;;
18286;SDS011;9269;50.838;12.094;2023-04-24T02:03:28;2.93;;;1.90;;
18286;SDS011;9269;50.838;12.094;2023-04-24T02:05:57;1.80;;;1.60;;
18286;SDS011;9269;50.838;12.094;2023-04-24T02:08:25;2.43;;;1.67;;
18286;SDS011;9269;50.838;12.094;2023-04-24T02:10:55;1.80;;;1.70;;
18286;SDS011;9269;50.838;12.094;2023-04-24T02:13:24;1.83;;;1.73;;
18286;SDS011;9269;50.838;12.094;2023-04-24T02:15:58;1.83;;;1.70;;
18286;SDS011;9269;50.838;12.094;2023-04-24T02:18:26;2.10;;;1.90;;
18286;SDS011;9269;50.838;12.094;2023-04-24T02:21:02;1.80;;;1.70;;
18286;SDS011;9269;50.838;12.094;2023-04-24T02:23:31;2.40;;;1.70;;
18286;SDS011;9269;50.838;12.094;2023-04-24T02:26:01;1.77;;;1.67;;
18286;SDS011;9269;50.838;12.094;2023-04-24T02:31:23;1.90;;;1.80;;
18286;SDS011;9269;50.838;12.094;2023-04-24T02:36:49;1.57;;;1.47;;
18286;SDS011;9269;50.838;12.094;2023-04-24T02:39:20;2.13;;;1.60;;
18286;SDS011;9269;50.838;12.094;2023-04-24T02:41:50;1.83;;;1.60;;
18286;SDS011;9269;50.838;12.094;2023-04-24T02:47:28;2.67;;;1.67;;
18286;SDS011;9269;50.838;12.094;2023-04-24T02:49:56;2.00;;;1.80;;
18286;SDS011;9269;50.838;12.094;2023-04-24T02:52:25;1.67;;;1.57;;
18286;SDS011;9269;50.838;12.094;2023-04-24T02:54:53;2.23;;;1.90;;
18286;SDS011;9269;50.838;12.094;2023-04-24T02:57:23;1.50;;;1.40;;
18286;SDS011;9269;50.838;12.094;2023-04-24T02:59:51;1.90;;;1.73;;
18286;SDS011;9269;50.838;12.094;2023-04-24T03:02:19;2.20;;;2.10;;
18286;SDS011;9269;50.838;12.094;2023-04-24T03:04:48;2.10;;;1.97;;
18286;SDS011;9269;50.838;12.094;2023-04-24T03:07:23;1.90;;;1.67;;
18286;SDS011;9269;50.838;12.094;2023-04-24T03:09:52;2.03;;;1.93;;
18286;SDS011;9269;50.838;12.094;2023-04-24T03:12:22;1.90;;;1.70;;
18286;SDS011;9269;50.838;12.094;2023-04-24T03:14:51;2.60;;;1.60;;
18286;SDS011;9269;50.838;12.094;2023-04-24T03:17:19;2.23;;;1.90;;
18286;SDS011;9269;50.838;12.094;2023-04-24T03:19:56;2.27;;;2.00;;
18286;SDS011;9269;50.838;12.094;2023-04-24T03:22:25;2.10;;;1.80;;
18286;SDS011;9269;50.838;12.094;2023-04-24T03:25:09;1.70;;;1.60;;
18286;SDS011;9269;50.838;12.094;2023-04-24T03:27:39;1.90;;;1.80;;
18286;SDS011;9269;50.838;12.094;2023-04-24T03:30:08;1.70;;;1.60;;
18286;SDS011;9269;50.838;12.094;2023-04-24T03:32:47;1.90;;;1.80;;
18286;SDS011;9269;50.838;12.094;2023-04-24T03:35:15;3.87;;;2.00;;
18286;SDS011;9269;50.838;12.094;2023-04-24T03:38:00;2.37;;;2.17;;
18286;SDS011;9269;50.838;12.094;2023-04-24T03:40:37;2.63;;;1.90;;
18286;SDS011;9269;50.838;12.094;2023-04-24T03:43:07;2.30;;;2.03;;
18286;SDS011;9269;50.838;12.094;2023-04-24T03:45:36;1.83;;;1.73;;
18286;SDS011;9269;50.838;12.094;2023-04-24T03:48:05;2.13;;;1.93;;
18286;SDS011;9269;50.838;12.094;2023-04-24T03:50:34;1.93;;;1.80;;
18286;SDS011;9269;50.838;12.094;2023-04-24T03:53:05;2.17;;;1.97;;
18286;SDS011;9269;50.838;12.094;2023-04-24T03:55:37;2.93;;;1.90;;
18286;SDS011;9269;50.838;12.094;2023-04-24T03:58:05;1.90;;;1.80;;
18286;SDS011;9269;50.838;12.094;2023-04-24T04:00:36;1.97;;;1.77;;
18286;SDS011;9269;50.838;12.094;2023-04-24T04:03:16;2.00;;;1.90;;
18286;SDS011;9269;50.838;12.094;2023-04-24T04:05:45;2.47;;;1.57;;
18286;SDS011;9269;50.838;12.094;2023-04-24T04:08:14;2.37;;;1.90;;
18286;SDS011;9269;50.838;12.094;2023-04-24T04:10:46;2.20;;;2.00;;
18286;SDS011;9269;50.838;12.094;2023-04-24T04:13:15;1.90;;;1.80;;
18286;SDS011;9269;50.838;12.094;2023-04-24T04:15:44;3.40;;;2.10;;
18286;SDS011;9269;50.838;12.094;2023-04-24T04:21:17;2.03;;;1.90;;
18286;SDS011;9269;50.838;12.094;2023-04-24T04:23:50;2.23;;;2.03;;
18286;SDS011;9269;50.838;12.094;2023-04-24T04:26:20;7.80;;;1.87;;
18286;SDS011;9269;50.838;12.094;2023-04-24T04:28:56;2.60;;;1.80;;
18286;SDS011;9269;50.838;12.094;2023-04-24T04:31:26;2.53;;;2.13;;
18286;SDS011;9269;50.838;12.094;2023-04-24T04:33:55;2.23;;;2.03;;
18286;SDS011;9269;50.838;12.094;2023-04-24T04:36:38;2.67;;;2.10;;
18286;SDS011;9269;50.838;12.094;2023-04-24T04:39:08;2.43;;;2.23;;
18286;SDS011;9269;50.838;12.094;2023-04-24T04:41:37;3.80;;;2.83;;
18286;SDS011;9269;50.838;12.094;2023-04-24T04:44:08;2.70;;;2.50;;
18286;SDS011;9269;50.838;12.094;2023-04-24T04:46:38;2.70;;;2.50;;
18286;SDS011;9269;50.838;12.094;2023-04-24T04:49:08;3.13;;;2.73;;
18286;SDS011;9269;50.838;12.094;2023-04-24T04:54:33;2.57;;;2.37;;
18286;SDS011;9269;50.838;12.094;2023-04-24T04:57:01;2.80;;;2.60;;
18286;SDS011;9269;50.838;12.094;2023-04-24T04:59:31;2.87;;;2.60;;
18286;SDS011;9269;50.838;12.094;2023-04-24T05:02:00;2.93;;;2.30;;
18286;SDS011;9269;50.838;12.094;2023-04-24T05:04:29;4.27;;;2.80;;
18286;SDS011;9269;50.838;12.094;2023-04-24T05:06:58;2.83;;;2.47;;
18286;SDS011;9269;50.838;12.094;2023-04-24T05:09:26;3.83;;;2.40;;
18286;SDS011;9269;50.838;12.094;2023-04-24T05:11:57;3.10;;;2.80;;
18286;SDS011;9269;50.838;12.094;2023-04-24T05:14:26;2.80;;;2.43;;
18286;SDS011;9269;50.838;12.094;2023-04-24T05:16:56;3.57;;;2.77;;
18286;SDS011;9269;50.838;12.094;2023-04-24T05:19:24;3.77;;;3.00;;
18286;SDS011;9269;50.838;12.094;2023-04-24T05:21:53;4.57;;;2.83;;
18286;SDS011;9269;50.838;12.094;2023-04-24T05:24:21;3.10;;;2.43;;
18286;SDS011;9269;50.838;12.094;2023-04-24T05:26:50;3.20;;;2.40;;
18286;SDS011;9269;50.838;12.094;2023-04-24T05:29:19;2.07;;;1.93;;
18286;SDS011;9269;50.838;12.094;2023-04-24T05:31:48;3.37;;;2.17;;
18286;SDS011;9269;50.838;12.094;2023-04-24T05:34:19;4.63;;;2.10;;
18286;SDS011;9269;50.838;12.094;2023-04-24T05:36:48;3.50;;;2.10;;
18286;SDS011;9269;50.838;12.094;2023-04-24T05:39:17;2.53;;;1.90;;
18286;SDS011;9269;50.838;12.094;2023-04-24T05:41:46;2.10;;;1.90;;
18286;SDS011;9269;50.838;12.094;2023-04-24T05:44:14;1.93;;;1.60;;
18286;SDS011;9269;50.838;12.094;2023-04-24T05:46:42;2.13;;;1.80;;
18286;SDS011;9269;50.838;12.094;2023-04-24T06:02:23;3.93;;;2.00;;
18286;SDS011;9269;50.838;12.094;2023-04-24T06:27:57;2.40;;;1.70;;
18286;SDS011;9269;50.838;12.094;2023-04-24T06:31:13;2.93;;;1.70;;
18286;SDS011;9269;50.838;12.094;2023-04-24T06:33:42;2.33;;;1.60;;
18286;SDS011;9269;50.838;12.094;2023-04-24T06:36:11;2.60;;;2.17;;
18286;SDS011;9269;50.838;12.094;2023-04-24T06:38:40;1.80;;;1.70;;
18286;SDS011;9269;50.838;12.094;2023-04-24T06:41:09;1.37;;;1.20;;
18286;SDS011;9269;50.838;12.094;2023-04-24T06:43:38;2.77;;;1.60;;
18286;SDS011;9269;50.838;12.094;2023-04-24T06:46:07;1.60;;;1.50;;
18286;SDS011;9269;50.838;12.094;2023-04-24T06:48:37;2.77;;;1.80;;
18286;SDS011;9269;50.838;12.094;2023-04-24T06:51:05;2.70;;;1.50;;
18286;SDS011;9269;50.838;12.094;2023-04-24T06:53:34;1.97;;;1.40;;
18286;SDS011;9269;50.838;12.094;2023-04-24T06:56:03;1.50;;;1.40;;
18286;SDS011;9269;50.838;12.094;2023-04-24T06:58:31;2.37;;;1.40;;
18286;SDS011;9269;50.838;12.094;2023-04-24T07:01:01;1.57;;;1.47;;
18286;SDS011;9269;50.838;12.094;2023-04-24T07:03:30;1.70;;;1.60;;
18286;SDS011;9269;50.838;12.094;2023-04-24T07:05:58;3.77;;;1.97;;
18286;SDS011;9269;50.838;12.094;2023-04-24T07:08:27;1.70;;;1.50;;
18286;SDS011;9269;50.838;12.094;2023-04-24T07:10:57;3.90;;;1.70;;
18286;SDS011;9269;50.838;12.094;2023-04-24T07:13:33;2.70;;;1.37;;
18286;SDS011;9269;50.838;12.094;2023-04-24T07:23:06;6.87;;;4.87;;
18286;SDS011;9269;50.838;12.094;2023-04-24T07:26:02;8.10;;;5.23;;
18286;SDS011;9269;50.838;12.094;2023-04-24T07:29:11;9.07;;;4.07;;
18286;SDS011;9269;50.838;12.094;2023-04-24T07:32:13;3.43;;;3.00;;
18286;SDS011;9269;50.838;12.094;2023-04-24T07:35:15;4.37;;;2.70;;
18286;SDS011;9269;50.838;12.094;2023-04-24T07:38:02;3.73;;;3.17;;
18286;SDS011;9269;50.838;12.094;2023-04-24T07:41:16;7.03;;;5.40;;
18286;SDS011;9269;50.838;12.094;2023-04-24T07:44:10;5.33;;;4.23;;
18286;SDS011;9269;50.838;12.094;2023-04-24T07:47:19;4.73;;;3.00;;
18286;SDS011;9269;50.838;12.094;2023-04-24T07:50:10;5.53;;;3.20;;
18286;SDS011;9269;50.838;12.094;2023-04-24T07:53:17;3.53;;;2.77;;
18286;SDS011;9269;50.838;12.094;2023-04-24T07:56:07;3.17;;;2.30;;
18286;SDS011;9269;50.838;12.094;2023-04-24T07:58:52;4.00;;;1.90;;
18286;SDS011;9269;50.838;12.094;2023-04-24T08:01:29;2.57;;;2.07;;
18286;SDS011;9269;50.838;12.094;2023-04-24T08:04:05;3.50;;;2.40;;
18286;SDS011;9269;50.838;12.094;2023-04-24T08:07:02;3.73;;;2.67;;
18286;SDS011;9269;50.838;12.094;2023-04-24T08:09:45;4.30;;;2.40;;
18286;SDS011;9269;50.838;12.094;2023-04-24T08:12:34;3.43;;;2.60;;
18286;SDS011;9269;50.838;12.094;2023-04-24T08:15:26;3.30;;;2.10;;
18286;SDS011;9269;50.838;12.094;2023-04-24T08:17:57;2.07;;;1.83;;
18286;SDS011;9269;50.838;12.094;2023-04-24T08:20:29;3.10;;;2.20;;
18286;SDS011;9269;50.838;12.094;2023-04-24T08:23:14;2.50;;;1.93;;
18286;SDS011;9269;50.838;12.094;2023-04-24T08:26:14;1.60;;;1.50;;
18286;SDS011;9269;50.838;12.094;2023-04-24T08:28:53;1.90;;;1.30;;
18286;SDS011;9269;50.838;12.094;2023-04-24T08:31:34;2.03;;;1.73;;
18286;SDS011;9269;50.838;12.094;2023-04-24T08:34:10;1.40;;;1.30;;
18286;SDS011;9269;50.838;12.094;2023-04-24T08:36:43;2.30;;;1.43;;
18286;SDS011;9269;50.838;12.094;2023-04-24T08:39:29;1.47;;;1.37;;
18286;SDS011;9269;50.838;12.094;2023-04-24T08:42:09;2.13;;;1.67;;
18286;SDS011;9269;50.838;12.094;2023-04-24T08:44:45;1.57;;;1.47;;
18286;SDS011;9269;50.838;12.094;2023-04-24T08:47:15;1.00;;;1.00;;
18286;SDS011;9269;50.838;12.094;2023-04-24T08:49:49;1.07;;;0.93;;
18286;SDS011;9269;50.838;12.094;2023-04-24T08:52:20;1.17;;;1.00;;
18286;SDS011;9269;50.838;12.094;2023-04-24T08:54:50;0.90;;;0.90;;
18286;SDS011;9269;50.838;12.094;2023-04-24T08:57:18;0.93;;;0.83;;
18286;SDS011;9269;50.838;12.094;2023-04-24T08:59:47;0.90;;;0.90;;
18286;SDS011;9269;50.838;12.094;2023-04-24T09:02:16;1.33;;;0.73;;
18286;SDS011;9269;50.838;12.094;2023-04-24T09:04:45;3.97;;;2.13;;
18286;SDS011;9269;50.838;12.094;2023-04-24T09:07:16;10.33;;;5.30;;
18286;SDS011;9269;50.838;12.094;2023-04-24T09:09:49;5.10;;;3.13;;
18286;SDS011;9269;50.838;12.094;2023-04-24T09:12:19;13.47;;;6.47;;
18286;SDS011;9269;50.838;12.094;2023-04-24T09:14:50;9.43;;;5.23;;
18286;SDS011;9269;50.838;12.094;2023-04-24T09:17:19;8.07;;;4.73;;
18286;SDS011;9269;50.838;12.094;2023-04-24T09:20:05;7.57;;;4.97;;
18286;SDS011;9269;50.838;12.094;2023-04-24T09:22:34;6.63;;;3.90;;
18286;SDS011;9269;50.838;12.094;2023-04-24T09:25:05;4.33;;;2.90;;
18286;SDS011;9269;50.838;12.094;2023-04-24T09:27:35;3.10;;;2.07;;
18286;SDS011;9269;50.838;12.094;2023-04-24T09:30:23;4.97;;;3.63;;
18286;SDS011;9269;50.838;12.094;2023-04-24T09:32:53;4.50;;;2.63;;
18286;SDS011;9269;50.838;12.094;2023-04-24T09:35:40;3.10;;;2.60;;
18286;SDS011;9269;50.838;12.094;2023-04-24T09:38:09;3.67;;;2.50;;
18286;SDS011;9269;50.838;12.094;2023-04-24T09:40:39;2.47;;;1.90;;
18286;SDS011;9269;50.838;12.094;2023-04-24T09:43:10;6.77;;;3.23;;
18286;SDS011;9269;50.838;12.094;2023-04-24T09:45:39;7.97;;;3.83;;
18286;SDS011;9269;50.838;12.094;2023-04-24T09:48:08;4.07;;;3.17;;
18286;SDS011;9269;50.838;12.094;2023-04-24T09:50:37;3.77;;;2.33;;
18286;SDS011;9269;50.838;12.094;2023-04-24T09:53:06;3.37;;;2.17;;
18286;SDS011;9269;50.838;12.094;2023-04-24T09:55:42;2.53;;;2.07;;
18286;SDS011;9269;50.838;12.094;2023-04-24T09:58:15;2.53;;;2.10;;
18286;SDS011;9269;50.838;12.094;2023-04-24T10:00:43;2.70;;;1.90;;
18286;SDS011;9269;50.838;12.094;2023-04-24T10:03:14;1.70;;;1.53;;
18286;SDS011;9269;50.838;12.094;2023-04-24T10:05:42;2.27;;;1.53;;
18286;SDS011;9269;50.838;12.094;2023-04-24T10:08:13;2.00;;;1.60;;
18286;SDS011;9269;50.838;12.094;2023-04-24T10:10:44;2.13;;;1.80;;
18286;SDS011;9269;50.838;12.094;2023-04-24T10:13:13;1.77;;;1.33;;
18286;SDS011;9269;50.838;12.094;2023-04-24T10:15:42;2.03;;;1.33;;
18286;SDS011;9269;50.838;12.094;2023-04-24T10:18:11;1.70;;;1.60;;
18286;SDS011;9269;50.838;12.094;2023-04-24T10:20:40;2.60;;;1.70;;
18286;SDS011;9269;50.838;12.094;2023-04-24T10:23:09;1.70;;;1.00;;
18286;SDS011;9269;50.838;12.094;2023-04-24T10:25:38;1.20;;;1.17;;
18286;SDS011;9269;50.838;12.094;2023-04-24T10:28:08;1.77;;;1.37;;
18286;SDS011;9269;50.838;12.094;2023-04-24T10:30:38;1.40;;;1.23;;
18286;SDS011;9269;50.838;12.094;2023-04-24T10:33:10;2.10;;;1.37;;
18286;SDS011;9269;50.838;12.094;2023-04-24T10:35:41;1.80;;;1.13;;
18286;SDS011;9269;50.838;12.094;2023-04-24T10:38:12;1.33;;;1.20;;
18286;SDS011;9269;50.838;12.094;2023-04-24T10:40:43;1.53;;;1.43;;
18286;SDS011;9269;50.838;12.094;2023-04-24T10:43:15;1.10;;;1.00;;
18286;SDS011;9269;50.838;12.094;2023-04-24T10:45:59;1.63;;;1.40;;
18286;SDS011;9269;50.838;12.094;2023-04-24T10:48:30;2.00;;;1.80;;
18286;SDS011;9269;50.838;12.094;2023-04-24T10:50:59;2.63;;;2.27;;
18286;SDS011;9269;50.838;12.094;2023-04-24T10:53:29;3.20;;;2.60;;
18286;SDS011;9269;50.838;12.094;2023-04-24T10:56:17;2.93;;;2.40;;
18286;SDS011;9269;50.838;12.094;2023-04-24T10:58:50;2.00;;;1.80;;
18286;SDS011;9269;50.838;12.094;2023-04-24T11:01:23;1.43;;;1.33;;
18286;SDS011;9269;50.838;12.094;2023-04-24T11:03:54;4.27;;;2.10;;
18286;SDS011;9269;50.838;12.094;2023-04-24T11:06:28;3.63;;;2.37;;
18286;SDS011;9269;50.838;12.094;2023-04-24T11:09:02;7.80;;;3.43;;
18286;SDS011;9269;50.838;12.094;2023-04-24T11:11:33;4.43;;;3.23;;
18286;SDS011;9269;50.838;12.094;2023-04-24T11:14:07;3.73;;;2.63;;
18286;SDS011;9269;50.838;12.094;2023-04-24T11:16:37;4.00;;;2.50;;
18286;SDS011;9269;50.838;12.094;2023-04-24T11:19:09;3.97;;;2.23;;
18286;SDS011;9269;50.838;12.094;2023-04-24T11:21:46;3.57;;;2.30;;
18286;SDS011;9269;50.838;12.094;2023-04-24T11:24:21;2.47;;;2.03;;
18286;SDS011;9269;50.838;12.094;2023-04-24T11:27:01;2.00;;;1.80;;
18286;SDS011;9269;50.838;12.094;2023-04-24T11:29:45;2.20;;;2.00;;
18286;SDS011;9269;50.838;12.094;2023-04-24T11:32:16;3.20;;;2.10;;
18286;SDS011;9269;50.838;12.094;2023-04-24T11:34:47;3.00;;;2.10;;
18286;SDS011;9269;50.838;12.094;2023-04-24T11:37:16;2.37;;;2.00;;
18286;SDS011;9269;50.838;12.094;2023-04-24T11:39:44;1.97;;;1.53;;
18286;SDS011;9269;50.838;12.094;2023-04-24T11:42:14;1.63;;;1.53;;
18286;SDS011;9269;50.838;12.094;2023-04-24T11:44:43;1.77;;;1.67;;
18286;SDS011;9269;50.838;12.094;2023-04-24T11:47:16;2.17;;;1.57;;
18286;SDS011;9269;50.838;12.094;2023-04-24T11:49:44;1.50;;;1.40;;
18286;SDS011;9269;50.838;12.094;2023-04-24T11:52:15;1.57;;;1.20;;
18286;SDS011;9269;50.838;12.094;2023-04-24T11:54:48;1.43;;;1.33;;
18286;SDS011;9269;50.838;12.094;2023-04-24T11:57:19;2.40;;;2.00;;
18286;SDS011;9269;50.838;12.094;2023-04-24T11:59:49;2.80;;;1.90;;
18286;SDS011;9269;50.838;12.094;2023-04-24T12:02:22;1.70;;;1.60;;
18286;SDS011;9269;50.838;12.094;2023-04-24T12:04:51;1.87;;;1.77;;
18286;SDS011;9269;50.838;12.094;2023-04-24T12:07:23;1.53;;;1.43;;
18286;SDS011;9269;50.838;12.094;2023-04-24T12:09:55;1.80;;;1.40;;
18286;SDS011;9269;50.838;12.094;2023-04-24T12:12:25;1.87;;;1.70;;
18286;SDS011;9269;50.838;12.094;2023-04-24T12:14:55;1.37;;;1.20;;
18286;SDS011;9269;50.838;12.094;2023-04-24T12:17:27;1.50;;;1.40;;
18286;SDS011;9269;50.838;12.094;2023-04-24T12:19:57;1.40;;;1.30;;
18286;SDS011;9269;50.838;12.094;2023-04-24T12:22:28;2.00;;;1.20;;
18286;SDS011;9269;50.838;12.094;2023-04-24T12:25:10;1.37;;;1.27;;
18286;SDS011;9269;50.838;12.094;2023-04-24T12:27:39;1.50;;;1.33;;
18286;SDS011;9269;50.838;12.094;2023-04-24T12:30:10;1.60;;;1.50;;
18286;SDS011;9269;50.838;12.094;2023-04-24T12:32:45;2.13;;;1.50;;
18286;SDS011;9269;50.838;12.094;2023-04-24T12:35:18;1.80;;;1.70;;
18286;SDS011;9269;50.838;12.094;2023-04-24T12:37:47;2.10;;;1.90;;
18286;SDS011;9269;50.838;12.094;2023-04-24T12:40:17;2.47;;;2.27;;
18286;SDS011;9269;50.838;12.094;2023-04-24T12:42:49;4.27;;;2.93;;
18286;SDS011;9269;50.838;12.094;2023-04-24T12:45:20;5.37;;;3.80;;
18286;SDS011;9269;50.838;12.094;2023-04-24T12:47:52;5.80;;;4.27;;
18286;SDS011;9269;50.838;12.094;2023-04-24T12:50:21;4.97;;;3.47;;
18286;SDS011;9269;50.838;12.094;2023-04-24T12:52:50;3.17;;;2.30;;
18286;SDS011;9269;50.838;12.094;2023-04-24T12:55:19;3.80;;;2.97;;
18286;SDS011;9269;50.838;12.094;2023-04-24T12:57:47;5.47;;;4.17;;
18286;SDS011;9269;50.838;12.094;2023-04-24T13:00:16;6.70;;;3.23;;
18286;SDS011;9269;50.838;12.094;2023-04-24T13:02:46;3.23;;;2.00;;
18286;SDS011;9269;50.838;12.094;2023-04-24T13:05:16;3.40;;;2.90;;
18286;SDS011;9269;50.838;12.094;2023-04-24T13:07:44;4.13;;;2.80;;
18286;SDS011;9269;50.838;12.094;2023-04-24T13:10:13;2.77;;;2.10;;
18286;SDS011;9269;50.838;12.094;2023-04-24T13:12:42;3.23;;;2.17;;
18286;SDS011;9269;50.838;12.094;2023-04-24T13:15:12;1.80;;;1.70;;
18286;SDS011;9269;50.838;12.094;2023-04-24T13:17:41;1.60;;;1.30;;
18286;SDS011;9269;50.838;12.094;2023-04-24T13:20:10;2.20;;;1.63;;
18286;SDS011;9269;50.838;12.094;2023-04-24T13:22:41;5.10;;;2.90;;
18286;SDS011;9269;50.838;12.094;2023-04-24T13:25:09;3.63;;;1.73;;
18286;SDS011;9269;50.838;12.094;2023-04-24T13:27:38;2.17;;;1.80;;
18286;SDS011;9269;50.838;12.094;2023-04-24T13:30:07;2.73;;;1.77;;
18286;SDS011;9269;50.838;12.094;2023-04-24T13:32:39;2.80;;;2.00;;
18286;SDS011;9269;50.838;12.094;2023-04-24T13:35:08;2.37;;;2.17;;
18286;SDS011;9269;50.838;12.094;2023-04-24T13:37:37;2.73;;;1.70;;
18286;SDS011;9269;50.838;12.094;2023-04-24T13:40:07;1.80;;;1.70;;
18286;SDS011;9269;50.838;12.094;2023-04-24T13:42:37;2.03;;;1.83;;
18286;SDS011;9269;50.838;12.094;2023-04-24T13:45:05;2.10;;;1.90;;
18286;SDS011;9269;50.838;12.094;2023-04-24T13:47:53;1.60;;;1.40;;
18286;SDS011;9269;50.838;12.094;2023-04-24T13:50:28;3.40;;;1.67;;
18286;SDS011;9269;50.838;12.094;2023-04-24T13:52:57;3.67;;;1.60;;
18286;SDS011;9269;50.838;12.094;2023-04-24T13:55:31;1.90;;;1.47;;
18286;SDS011;9269;50.838;12.094;2023-04-24T13:57:59;1.50;;;1.30;;
18286;SDS011;9269;50.838;12.094;2023-04-24T14:00:28;2.73;;;2.03;;
18286;SDS011;9269;50.838;12.094;2023-04-24T14:02:57;1.87;;;1.77;;
18286;SDS011;9269;50.838;12.094;2023-04-24T14:05:26;2.27;;;1.80;;
18286;SDS011;9269;50.838;12.094;2023-04-24T14:07:55;1.90;;;1.50;;
18286;SDS011;9269;50.838;12.094;2023-04-24T14:10:23;1.60;;;1.50;;
18286;SDS011;9269;50.838;12.094;2023-04-24T14:12:53;1.60;;;1.50;;
18286;SDS011;9269;50.838;12.094;2023-04-24T14:15:22;2.13;;;1.93;;
18286;SDS011;9269;50.838;12.094;2023-04-24T14:17:52;2.00;;;1.80;;
18286;SDS011;9269;50.838;12.094;2023-04-24T14:20:20;2.67;;;1.77;;
18286;SDS011;9269;50.838;12.094;2023-04-24T14:22:49;1.60;;;1.50;;
18286;SDS011;9269;50.838;12.094;2023-04-24T14:25:17;1.27;;;1.17;;
18286;SDS011;9269;50.838;12.094;2023-04-24T14:27:46;1.70;;;1.50;;
18286;SDS011;9269;50.838;12.094;2023-04-24T14:30:17;2.07;;;1.50;;
18286;SDS011;9269;50.838;12.094;2023-04-24T14:32:48;1.63;;;1.53;;
18286;SDS011;9269;50.838;12.094;2023-04-24T14:35:17;1.60;;;1.50;;
18286;SDS011;9269;50.838;12.094;2023-04-24T14:37:45;1.43;;;1.33;;
18286;SDS011;9269;50.838;12.094;2023-04-24T14:40:15;1.10;;;1.10;;
18286;SDS011;9269;50.838;12.094;2023-04-24T14:43:03;1.20;;;1.10;;
18286;SDS011;9269;50.838;12.094;2023-04-24T14:45:33;1.40;;;1.30;;
18286;SDS011;9269;50.838;12.094;2023-04-24T14:48:02;1.73;;;1.40;;
18286;SDS011;9269;50.838;12.094;2023-04-24T14:50:30;1.43;;;1.30;;
18286;SDS011;9269;50.838;12.094;2023-04-24T14:52:58;1.50;;;1.40;;
18286;SDS011;9269;50.838;12.094;2023-04-24T14:55:28;1.17;;;1.17;;
18286;SDS011;9269;50.838;12.094;2023-04-24T14:57:57;1.10;;;1.10;;
18286;SDS011;9269;50.838;12.094;2023-04-24T15:00:26;1.23;;;1.13;;
18286;SDS011;9269;50.838;12.094;2023-04-24T15:02:56;1.00;;;1.00;;
18286;SDS011;9269;50.838;12.094;2023-04-24T15:05:24;1.10;;;1.10;;
18286;SDS011;9269;50.838;12.094;2023-04-24T15:07:53;1.03;;;1.03;;
18286;SDS011;9269;50.838;12.094;2023-04-24T15:10:22;1.53;;;1.10;;
18286;SDS011;9269;50.838;12.094;2023-04-24T15:12:53;1.10;;;1.03;;
18286;SDS011;9269;50.838;12.094;2023-04-24T15:15:21;0.70;;;0.70;;
18286;SDS011;9269;50.838;12.094;2023-04-24T15:17:49;1.13;;;1.03;;
18286;SDS011;9269;50.838;12.094;2023-04-24T15:20:19;0.83;;;0.83;;
18286;SDS011;9269;50.838;12.094;2023-04-24T15:22:48;1.03;;;1.00;;
18286;SDS011;9269;50.838;12.094;2023-04-24T15:25:17;0.87;;;0.87;;
18286;SDS011;9269;50.838;12.094;2023-04-24T15:27:46;1.10;;;1.00;;
18286;SDS011;9269;50.838;12.094;2023-04-24T15:30:15;0.97;;;0.97;;
18286;SDS011;9269;50.838;12.094;2023-04-24T15:32:44;0.90;;;0.90;;
18286;SDS011;9269;50.838;12.094;2023-04-24T15:35:12;0.97;;;0.97;;
18286;SDS011;9269;50.838;12.094;2023-04-24T15:37:42;1.00;;;1.00;;
18286;SDS011;9269;50.838;12.094;2023-04-24T15:40:11;1.20;;;1.10;;
18286;SDS011;9269;50.838;12.094;2023-04-24T15:42:42;0.80;;;0.80;;
18286;SDS011;9269;50.838;12.094;2023-04-24T15:45:11;1.73;;;0.90;;
18286;SDS011;9269;50.838;12.094;2023-04-24T15:47:40;0.90;;;0.83;;
18286;SDS011;9269;50.838;12.094;2023-04-24T15:50:08;2.20;;;0.90;;
18286;SDS011;9269;50.838;12.094;2023-04-24T15:52:44;0.87;;;0.87;;
18286;SDS011;9269;50.838;12.094;2023-04-24T15:55:12;0.70;;;0.70;;
18286;SDS011;9269;50.838;12.094;2023-04-24T15:57:41;0.73;;;0.70;;
18286;SDS011;9269;50.838;12.094;2023-04-24T16:00:10;0.60;;;0.60;;
18286;SDS011;9269;50.838;12.094;2023-04-24T16:02:39;0.60;;;0.60;;
18286;SDS011;9269;50.838;12.094;2023-04-24T16:05:08;0.50;;;0.50;;
18286;SDS011;9269;50.838;12.094;2023-04-24T16:07:37;0.60;;;0.60;;
18286;SDS011;9269;50.838;12.094;2023-04-24T16:10:08;0.60;;;0.60;;
18286;SDS011;9269;50.838;12.094;2023-04-24T16:12:37;0.73;;;0.60;;
18286;SDS011;9269;50.838;12.094;2023-04-24T16:15:06;0.60;;;0.60;;
18286;SDS011;9269;50.838;12.094;2023-04-24T16:17:36;0.70;;;0.70;;
18286;SDS011;9269;50.838;12.094;2023-04-24T16:20:06;0.67;;;0.67;;
18286;SDS011;9269;50.838;12.094;2023-04-24T16:22:37;1.00;;;0.90;;
18286;SDS011;9269;50.838;12.094;2023-04-24T16:25:07;1.20;;;0.87;;
18286;SDS011;9269;50.838;12.094;2023-04-24T16:27:37;1.03;;;0.70;;
18286;SDS011;9269;50.838;12.094;2023-04-24T16:30:06;0.60;;;0.60;;
18286;SDS011;9269;50.838;12.094;2023-04-24T16:32:35;0.60;;;0.50;;
18286;SDS011;9269;50.838;12.094;2023-04-24T16:35:04;0.70;;;0.70;;
18286;SDS011;9269;50.838;12.094;2023-04-24T16:37:33;0.50;;;0.50;;